Time;durP1;ratioP1;P1;durP2;ratioP2;P2;SDS_P1;SDS_P2;PMS_P1;PMS_P2;Temp;Humidity;BMP_temperature;BMP_pressure;BME280_temperature;BME280_humidity;BME280_pressure;Samples;Min_cycle;Max_cycle;Signal;HPM_P1;HPM_P2
2022/01/12 00:02:18;;;;;;;;;;;;;;;1.78;71.12;101441.44;4991956;28;19925;-91
2022/01/12 00:04:45;;;;;;;;;;;;;;;1.79;71.10;101439.75;5016492;28;19944;-92
2022/01/12 00:07:11;;;;;;;;;;;;;;;1.79;71.05;101442.34;4997593;28;19920;-91
2022/01/12 00:09:37;;;;;;;;;;;;;;;1.82;70.89;101450.25;4997109;28;19929;-91
2022/01/12 00:12:02;;;;;;;;;;;;;;;1.78;70.82;101454.53;5004144;28;19926;-91
2022/01/12 00:14:27;;;;;;;;;;;;;;;1.87;71.00;101456.44;4994717;28;19922;-91
2022/01/12 00:16:58;;;;;;;;;;;;;;;1.81;70.87;101466.78;5002106;28;19949;-90
2022/01/12 00:19:27;;;;;;;;;;;;;;;1.83;70.75;101472.91;5002985;28;20019;-91
2022/01/12 00:21:55;;;;;;;;;;;;;;;1.85;70.89;101473.84;5003982;28;19913;-92
2022/01/12 00:24:20;;;;;;;;;;;;;;;1.92;70.97;101474.84;5001885;28;19924;-91
2022/01/12 04:33:17;;;;;;;;;;;;;;;2.44;90.29;101576.94;4974092;28;19933;-89
2022/01/12 04:35:56;;;;;;;;;;;;;;;2.40;90.05;101572.53;4972599;28;19926;-93
2022/01/12 04:41:25;;;;;;;;;;;;;;;2.23;89.28;101583.53;4943703;28;19926;-91
2022/01/12 04:43:55;;;;;;;;;;;;;;;2.25;89.04;101574.00;4987963;28;19973;-90
2022/01/12 04:46:32;;;;;;;;;;;;;;;2.13;88.82;101563.28;4972810;28;19996;-93
2022/01/12 04:55:00;;;;;;;;;;;;;;;;;;;;;
2022/01/12 05:17:37;;;;;;;;;;;;;;;;;;;;;
2022/01/12 05:19:52;;;;;;;;;;;;;;;1.63;84.74;101556.16;4747749;30;19922;-91
2022/01/12 05:22:19;;;;;;;;;;;;;;;1.59;84.45;101565.63;4892923;29;19919;-90
2022/01/12 05:24:45;;;;;;;;;;;;;;;1.51;84.34;101572.41;4948450;28;19949;-91
2022/01/12 05:27:10;;;;;;;;;;;;;;;1.44;84.27;101567.91;4982613;28;19965;-93
2022/01/12 05:29:36;;;;;;;;;;;;;;;1.52;84.15;101566.34;4981624;28;19941;-92
2022/01/12 05:32:02;;;;;;;;;;;;;;;1.48;83.70;101561.03;4998363;28;20001;-91
2022/01/12 08:52:56;;;;;;;;;;;;;;;0.33;77.61;101732.03;4974139;28;19953;-94
2022/01/12 08:55:22;;;;;;;;;;;;;;;0.30;77.74;101735.44;4973688;28;20029;-91
2022/01/12 08:57:47;;;;;;;;;;;;;;;0.34;77.60;101741.63;4973261;28;20399;-92
2022/01/12 09:00:13;;;;;;;;;;;;;;;0.31;77.44;101741.53;4974091;28;19926;-93
2022/01/12 09:02:38;;;;;;;;;;;;;;;1.29;79.77;101758.22;4973114;28;20427;-80
2022/01/12 09:05:04;;;;;;;;;;;;;;;1.17;79.83;101759.66;4972354;28;19922;-89
2022/01/12 09:07:29;;;;;;;;;;;;;;;0.89;80.26;101760.59;4973793;28;19926;-87
2022/01/12 09:09:55;;;;;;;;;;;;;;;0.90;80.19;101760.66;4973735;28;19964;-87
2022/01/12 09:12:20;;;;;;;;;;;;;;;0.97;79.31;101756.47;4972576;28;20365;-90
2022/01/12 09:14:45;;;;;;;;;;;;;;;0.92;78.92;101754.59;4972417;28;20058;-89
2022/01/12 09:17:18;;;;;;;;;;;;;;;0.93;78.69;101753.78;4973984;28;20362;-92
2022/01/12 09:19:44;;;;;;;;;;;;;;;1.80;79.86;101747.31;4962232;28;19918;-80
2022/01/12 09:22:10;;;;;;;;;;;;;;;2.19;81.06;101746.50;4973335;28;19921;-92
2022/01/12 09:24:35;;;;;;;;;;;;;;;1.49;82.00;101762.22;4972283;28;19922;-89
2022/01/12 09:27:00;;;;;;;;;;;;;;;1.22;82.18;101744.13;4973629;28;20329;-89
2022/01/12 09:29:26;;;;;;;;;;;;;;;1.07;81.93;101757.66;4972093;28;20391;-89
2022/01/12 09:31:51;;;;;;;;;;;;;;;1.04;81.55;101762.78;4972107;28;19918;-88
2022/01/12 09:34:17;;;;;;;;;;;;;;;0.98;81.21;101767.84;4970165;28;19933;-89
2022/01/12 09:36:42;;;;;;;;;;;;;;;0.92;80.88;101789.41;4968128;28;19918;-88
2022/01/12 09:39:08;;;;;;;;;;;;;;;0.92;80.70;101793.75;4972763;28;19930;-88
2022/01/12 09:41:34;;;;;;;;;;;;;;;0.89;80.49;101811.13;4976083;28;19918;-89
2022/01/12 09:44:00;;;;;;;;;;;;;;;0.83;80.22;101818.75;4975883;28;19981;-90
2022/01/12 09:46:28;;;;;;;;;;;;;;;0.84;80.02;101822.25;4976061;28;19945;-90
2022/01/12 09:48:55;;;;;;;;;;;;;;;0.81;79.94;101822.16;4975729;28;19925;-89
2022/01/12 09:51:22;;;;;;;;;;;;;;;0.79;79.70;101831.66;4985255;28;19929;-89
2022/01/12 09:53:48;;;;;;;;;;;;;;;0.79;79.50;101834.28;5003699;28;19999;-88
2022/01/12 09:56:20;;;;;;;;;;;;;;;0.78;79.04;101843.81;5005412;28;20013;-91
2022/01/12 09:58:46;;;;;;;;;;;;;;;0.79;78.78;101831.66;5004056;28;19918;-92
2022/01/12 10:01:11;;;;;;;;;;;;;;;0.74;78.41;101826.31;5003134;28;19921;-92
2022/01/12 10:03:37;;;;;;;;;;;;;;;0.75;78.28;101822.88;5006740;28;20361;-89
2022/01/12 10:06:13;;;;;;;;;;;;;;;0.89;78.10;101821.56;5007249;28;19925;-88
2022/01/12 10:08:38;;;;;;;;;;;;;;;0.92;77.99;101831.19;5005185;28;19918;-90
2022/01/12 10:11:05;;;;;;;;;;;;;;;0.91;77.38;101826.81;5004120;28;19948;-90
2022/01/12 10:13:31;;;;;;;;;;;;;;;0.90;77.33;101828.53;5003172;28;20008;-89
2022/01/12 10:15:56;;;;;;;;;;;;;;;0.90;77.11;101818.09;5004600;28;20012;-90
2022/01/12 10:18:24;;;;;;;;;;;;;;;0.84;76.90;101817.03;5007285;28;20374;-88
2022/01/12 10:20:50;;;;;;;;;;;;;;;0.85;76.83;101830.13;5004132;28;19929;-89
2022/01/12 10:23:16;;;;;;;;;;;;;;;0.91;76.85;101829.44;5005087;28;20323;-89
2022/01/12 10:25:46;;;;;;;;;;;;;;;0.97;76.64;101829.59;5005322;28;19921;-90
2022/01/12 10:28:13;;;;;;;;;;;;;;;0.97;76.42;101831.31;5003047;28;20372;-88
2022/01/12 10:30:38;;;;;;;;;;;;;;;0.99;76.20;101835.75;5004593;28;19929;-89
2022/01/12 10:33:05;;;;;;;;;;;;;;;0.97;75.99;101840.03;5005548;28;19917;-88
2022/01/12 10:35:32;;;;;;;;;;;;;;;0.97;75.95;101844.38;5010082;28;19963;-91
2022/01/12 10:38:07;;;;;;;;;;;;;;;0.83;75.61;101837.03;5006248;28;20029;-93
2022/01/12 10:40:46;;;;;;;;;;;;;;;0.91;75.77;101839.88;5004520;28;19925;-92
2022/01/12 10:43:44;;;;;;;;;;;;;;;0.98;75.86;101833.97;5008044;28;19946;-89
2022/01/12 10:46:14;;;;;;;;;;;;;;;0.99;75.50;101819.19;4973415;28;20020;-88
2022/01/12 10:48:50;;;;;;;;;;;;;;;0.94;75.43;101807.72;5003572;28;20362;-90
2022/01/12 10:51:16;;;;;;;;;;;;;;;0.95;75.75;101812.13;5002093;28;19965;-90
2022/01/12 10:53:42;;;;;;;;;;;;;;;0.97;75.44;101803.47;5004631;28;19918;-89
2022/01/12 10:56:11;;;;;;;;;;;;;;;1.02;75.59;101808.84;5003496;28;19925;-89
2022/01/12 10:58:37;;;;;;;;;;;;;;;1.06;75.25;101792.41;5011852;28;19917;-90
2022/01/12 11:01:03;;;;;;;;;;;;;;;1.05;75.32;101794.16;5004090;28;20335;-89
2022/01/12 11:03:29;;;;;;;;;;;;;;;1.06;74.96;101795.03;5004273;28;19925;-90
2022/01/12 11:05:55;;;;;;;;;;;;;;;1.08;75.22;101795.94;5002229;28;20339;-91
2022/01/12 11:08:22;;;;;;;;;;;;;;;1.08;74.92;101791.59;5003359;28;19921;-92
2022/01/12 11:10:47;;;;;;;;;;;;;;;1.04;74.70;101794.13;5012203;28;20306;-89
2022/01/12 11:13:13;;;;;;;;;;;;;;;1.08;74.72;101794.22;5003464;28;19928;-90
2022/01/12 11:15:38;;;;;;;;;;;;;;;1.07;74.94;101792.47;5003087;28;19917;-90
2022/01/12 11:18:04;;;;;;;;;;;;;;;1.02;74.84;101806.22;5003234;28;19918;-89
2022/01/12 11:20:33;;;;;;;;;;;;;;;1.11;74.94;101801.25;5001831;28;20328;-88
2022/01/12 11:23:08;;;;;;;;;;;;;;;1.14;74.70;101801.34;5004983;28;19918;-90
2022/01/12 11:25:38;;;;;;;;;;;;;;;1.07;74.86;101794.22;5004312;28;20404;-89
2022/01/12 11:28:07;;;;;;;;;;;;;;;1.12;74.78;101794.31;5010901;28;20396;-88
2022/01/12 11:30:33;;;;;;;;;;;;;;;1.09;74.67;101802.97;5004006;28;20376;-91
2022/01/12 11:32:59;;;;;;;;;;;;;;;1.06;74.67;101797.66;5011739;28;20294;-89
2022/01/12 11:35:26;;;;;;;;;;;;;;;1.09;74.35;101798.59;5003431;28;19921;-91
2022/01/12 11:37:57;;;;;;;;;;;;;;;1.11;74.37;101803.00;5005036;28;19960;-90
2022/01/12 11:40:34;;;;;;;;;;;;;;;1.15;74.23;101803.13;5003213;28;19925;-91
2022/01/12 11:42:59;;;;;;;;;;;;;;;1.08;74.20;101786.38;5002271;28;20477;-89
2022/01/12 11:45:27;;;;;;;;;;;;;;;1.13;74.42;101791.75;5002635;28;19930;-90
2022/01/12 11:47:59;;;;;;;;;;;;;;;1.19;74.08;101789.31;5003562;28;20009;-88
2022/01/12 11:50:27;;;;;;;;;;;;;;;1.14;73.83;101788.28;5003069;28;19932;-86
2022/01/12 11:53:02;;;;;;;;;;;;;;;;;;;;;
2022/01/12 11:55:32;;;;;;;;;;;;;;;1.16;73.94;101784.00;5003147;28;19928;-89
2022/01/12 11:58:03;;;;;;;;;;;;;;;1.22;73.90;101778.94;5002880;28;19980;-88
2022/01/12 12:00:31;;;;;;;;;;;;;;;1.23;73.67;101778.09;5002349;28;19984;-92
2022/01/12 12:03:01;;;;;;;;;;;;;;;1.20;74.11;101785.84;5001179;28;19917;-87
2022/01/12 12:05:34;;;;;;;;;;;;;;;1.24;73.96;101777.25;4999926;28;19926;-88
2022/01/12 12:08:04;;;;;;;;;;;;;;;1.25;73.67;101772.94;5003063;28;19922;-91
2022/01/12 12:10:37;;;;;;;;;;;;;;;1.22;73.80;101767.63;5001979;28;19933;-90
2022/01/12 12:13:05;;;;;;;;;;;;;;;1.20;73.89;101764.97;5003725;28;19921;-86
2022/01/12 12:15:34;;;;;;;;;;;;;;;1.22;73.63;101762.41;5002766;28;19921;-88
2022/01/12 12:18:04;;;;;;;;;;;;;;;1.27;73.41;101764.28;5002934;28;20479;-86
2022/01/12 12:20:31;;;;;;;;;;;;;;;1.25;73.56;101758.13;5007313;28;19932;-90
2022/01/12 12:22:58;;;;;;;;;;;;;;;1.23;73.20;101754.59;5005924;28;19972;-87
2022/01/12 12:25:27;;;;;;;;;;;;;;;1.26;73.14;101749.47;5003865;28;19921;-88
2022/01/12 12:27:54;;;;;;;;;;;;;;;1.26;73.16;101741.63;5004401;28;20422;-90
2022/01/12 12:30:23;;;;;;;;;;;;;;;1.29;72.98;101738.19;5001784;28;19921;-87
2022/01/12 12:32:56;;;;;;;;;;;;;;;1.26;73.09;101731.19;5002621;28;19932;-86
2022/01/12 12:35:31;;;;;;;;;;;;;;;1.29;72.86;101726.88;5000188;28;19937;-88
2022/01/12 12:38:14;;;;;;;;;;;;;;;1.25;73.05;101726.78;5001452;28;19928;-86
2022/01/12 12:40:43;;;;;;;;;;;;;;;1.23;73.24;101722.38;5001768;28;19925;-90
2022/01/12 12:43:17;;;;;;;;;;;;;;;1.33;73.00;101718.28;5002505;28;19925;-89
2022/01/12 12:45:57;;;;;;;;;;;;;;;1.31;73.08;101706.88;5000874;28;20343;-90
2022/01/12 12:48:23;;;;;;;;;;;;;;;1.29;73.19;101721.66;5000953;28;19921;-88
2022/01/12 12:50:57;;;;;;;;;;;;;;;1.45;74.29;101713.34;5002461;28;19921;-90
2022/01/12 12:53:35;;;;;;;;;;;;;;;1.76;77.67;101714.13;5005267;28;19987;-91
2022/01/12 12:56:27;;;;;;;;;;;;;;;1.94;80.86;101717.16;5001380;28;20514;-90
2022/01/12 12:58:53;;;;;;;;;;;;;;;2.11;83.59;101716.69;5001544;28;20377;-90
2022/01/12 13:01:20;;;;;;;;;;;;;;;2.14;85.21;101728.09;5003333;28;19926;-87
2022/01/12 13:03:52;;;;;;;;;;;;;;;2.08;86.81;101724.47;5001127;28;19921;-88
2022/01/12 13:06:18;;;;;;;;;;;;;;;2.12;88.23;101728.88;4999022;28;20362;-88
2022/01/12 13:08:53;;;;;;;;;;;;;;;2.15;89.28;101724.63;5001702;28;19930;-87
2022/01/12 13:11:19;;;;;;;;;;;;;;;2.14;90.20;101729.84;5001507;28;19921;-88
2022/01/12 13:13:54;;;;;;;;;;;;;;;2.15;91.24;101728.97;5003274;28;19940;-91
2022/01/12 13:16:19;;;;;;;;;;;;;;;2.20;92.04;101739.53;5002677;28;19936;-89
2022/01/12 13:18:47;;;;;;;;;;;;;;;2.17;93.13;101727.25;5002402;28;19922;-88
2022/01/12 13:21:18;;;;;;;;;;;;;;;2.16;94.37;101723.75;5000107;28;19926;-87
2022/01/12 13:23:45;;;;;;;;;;;;;;;2.18;95.68;101719.44;5007311;28;19937;-89
2022/01/12 13:26:15;;;;;;;;;;;;;;;2.30;96.89;101723.22;5002308;28;19943;-87
2022/01/12 13:28:42;;;;;;;;;;;;;;;2.34;98.25;101717.19;5000610;28;19925;-86
2022/01/12 13:31:12;;;;;;;;;;;;;;;2.34;100.00;101723.28;5002204;28;19953;-87
2022/01/12 13:33:39;;;;;;;;;;;;;;;2.52;100.00;101727.13;5002296;28;20005;-86
2022/01/12 13:36:10;;;;;;;;;;;;;;;2.68;100.00;101718.78;4999177;28;19922;-86
2022/01/12 13:38:36;;;;;;;;;;;;;;;2.79;100.00;101716.34;5002088;28;19921;-86
2022/01/12 13:41:05;;;;;;;;;;;;;;;2.93;100.00;101716.63;5002400;28;19921;-86
2022/01/12 13:43:30;;;;;;;;;;;;;;;3.02;100.00;101724.66;5001987;28;19921;-87
2022/01/12 13:46:00;;;;;;;;;;;;;;;3.09;100.00;101728.28;5002208;28;19917;-85
2022/01/12 13:48:30;;;;;;;;;;;;;;;3.14;100.00;101726.63;5008654;28;19928;-86
2022/01/12 13:50:55;;;;;;;;;;;;;;;3.24;100.00;101727.72;4999542;28;19980;-86
2022/01/12 13:53:32;;;;;;;;;;;;;;;3.31;100.00;101736.56;5001790;28;19918;-86
2022/01/12 13:55:58;;;;;;;;;;;;;;;3.36;100.00;101734.88;5000893;28;20440;-86
2022/01/12 13:58:27;;;;;;;;;;;;;;;3.42;100.00;101733.25;5001036;28;20004;-86
2022/01/12 14:01:05;;;;;;;;;;;;;;;3.51;100.00;101734.25;5001811;28;20376;-86
2022/01/12 14:03:38;;;;;;;;;;;;;;;3.57;100.00;101732.63;5001227;28;19961;-88
2022/01/12 14:06:12;;;;;;;;;;;;;;;3.61;100.00;101730.97;4998997;28;19939;-86
2022/01/12 14:08:51;;;;;;;;;;;;;;;3.71;100.00;101734.63;5025001;28;20341;-87
2022/01/12 14:11:16;;;;;;;;;;;;;;;3.72;100.00;101736.34;5001806;28;19953;-86
2022/01/12 14:13:42;;;;;;;;;;;;;;;3.78;100.00;101740.00;5000639;28;20280;-89
2022/01/12 14:16:11;;;;;;;;;;;;;;;3.88;100.00;101748.88;5000781;28;19929;-85
2022/01/12 14:18:36;;;;;;;;;;;;;;;3.90;100.00;101746.28;5001574;28;20373;-87
2022/01/12 14:21:11;;;;;;;;;;;;;;;3.93;100.00;101741.09;4999355;28;19932;-86
2022/01/12 14:23:39;;;;;;;;;;;;;;;3.99;100.00;101734.19;5000927;28;20011;-86
2022/01/12 14:26:05;;;;;;;;;;;;;;;3.96;100.00;101743.75;5004533;28;20031;-85
2022/01/12 14:28:33;;;;;;;;;;;;;;;3.14;100.00;101747.59;5005312;28;20391;-86
2022/01/12 14:30:59;;;;;;;;;;;;;;;2.80;100.00;101746.06;5005519;28;19924;-88
2022/01/12 14:33:25;;;;;;;;;;;;;;;2.50;100.00;101749.78;5004616;28;19913;-87
2022/01/12 14:35:51;;;;;;;;;;;;;;;2.54;100.00;101744.66;5002651;28;19917;-86
2022/01/12 14:38:16;;;;;;;;;;;;;;;2.40;100.00;101746.09;5005580;28;19922;-86
2022/01/12 14:40:42;;;;;;;;;;;;;;;2.21;99.82;101739.56;5003738;28;20037;-87
2022/01/12 14:43:08;;;;;;;;;;;;;;;2.19;98.13;101736.03;5003535;28;19980;-86
2022/01/12 14:45:35;;;;;;;;;;;;;;;2.15;96.52;101727.25;5004173;28;20374;-85
2022/01/12 14:48:01;;;;;;;;;;;;;;;2.09;95.01;101736.66;5003897;28;20467;-86
2022/01/12 14:50:28;;;;;;;;;;;;;;;1.96;93.91;101745.94;5002708;28;20262;-86
2022/01/12 14:52:54;;;;;;;;;;;;;;;2.04;92.76;101747.00;5011942;28;19961;-87
2022/01/12 14:55:20;;;;;;;;;;;;;;;1.99;91.60;101760.00;5005176;28;19964;-85
2022/01/12 14:57:45;;;;;;;;;;;;;;;1.89;90.67;101758.00;5004770;28;19918;-86
2022/01/12 15:00:16;;;;;;;;;;;;;;;1.83;89.95;101750.00;5003821;28;19921;-86
2022/01/12 15:02:42;;;;;;;;;;;;;;;1.79;89.01;101750.78;5011662;28;19925;-86
2022/01/12 15:05:07;;;;;;;;;;;;;;;1.75;88.13;101743.72;5002835;28;20369;-87
2022/01/12 15:07:33;;;;;;;;;;;;;;;1.67;87.59;101747.88;5003374;28;19951;-86
2022/01/12 15:09:58;;;;;;;;;;;;;;;1.58;86.85;101735.44;5003182;28;19921;-86
2022/01/12 15:12:32;;;;;;;;;;;;;;;1.53;86.54;101742.28;5003486;28;19921;-87
2022/01/12 15:14:59;;;;;;;;;;;;;;;1.41;86.26;101728.06;5003183;28;19917;-86
2022/01/12 15:17:25;;;;;;;;;;;;;;;1.51;85.83;101726.56;5004354;28;19918;-87
2022/01/12 15:19:51;;;;;;;;;;;;;;;1.48;85.57;101713.44;5001932;28;19976;-86
2022/01/12 15:22:16;;;;;;;;;;;;;;;1.42;85.42;101727.25;5003389;28;20407;-86
2022/01/12 15:24:42;;;;;;;;;;;;;;;1.37;85.22;101741.91;5004438;28;20380;-86
2022/01/12 15:27:07;;;;;;;;;;;;;;;1.33;85.17;101734.81;5004271;28;20317;-86
2022/01/12 15:29:32;;;;;;;;;;;;;;;1.37;85.01;101730.56;5004127;28;19971;-83
2022/01/12 15:31:57;;;;;;;;;;;;;;;1.63;85.29;101724.28;5002851;28;19925;-87
2022/01/12 15:34:23;;;;;;;;;;;;;;;1.44;85.08;101725.53;5002591;28;19969;-87
2022/01/12 15:36:48;;;;;;;;;;;;;;;1.33;84.98;101729.59;5002746;28;19917;-89
2022/01/12 15:39:14;;;;;;;;;;;;;;;1.29;84.94;101738.19;5002855;28;20407;-88
2022/01/12 15:41:40;;;;;;;;;;;;;;;1.32;84.81;101734.78;5002566;28;19917;-89
2022/01/12 15:44:05;;;;;;;;;;;;;;;1.24;84.41;101742.41;5004022;28;20277;-90
2022/01/12 15:46:33;;;;;;;;;;;;;;;1.28;84.07;101746.88;5002494;28;19984;-89
2022/01/12 15:48:58;;;;;;;;;;;;;;;1.31;83.73;101751.28;5002695;28;20372;-89
2022/01/12 15:51:24;;;;;;;;;;;;;;;1.25;83.79;101755.53;5000956;28;20007;-90
2022/01/12 15:53:49;;;;;;;;;;;;;;;1.18;83.45;101755.31;5003719;28;20258;-89
2022/01/12 15:56:16;;;;;;;;;;;;;;;1.21;83.51;101756.28;5002709;28;20511;-90
2022/01/12 15:58:44;;;;;;;;;;;;;;;1.13;83.54;101752.56;5003567;28;19922;-89
2022/01/12 16:01:11;;;;;;;;;;;;;;;1.21;83.35;101756.28;5003062;28;22108;-89
2022/01/12 16:03:36;;;;;;;;;;;;;;;1.12;83.51;101756.03;5003013;28;19976;-89
2022/01/12 16:06:04;;;;;;;;;;;;;;;1.13;83.21;101770.84;5000937;28;20365;-90
2022/01/12 16:08:29;;;;;;;;;;;;;;;1.09;83.25;101763.78;5003691;28;19917;-90
2022/01/12 16:10:57;;;;;;;;;;;;;;;1.04;83.01;101761.06;5004035;28;19939;-89
2022/01/12 16:13:22;;;;;;;;;;;;;;;0.98;82.96;101762.59;5002609;28;20389;-89
2022/01/12 16:15:48;;;;;;;;;;;;;;;1.05;82.84;101767.16;5002655;28;19949;-90
2022/01/12 16:18:14;;;;;;;;;;;;;;;0.99;83.01;101765.25;5001775;28;19957;-89
2022/01/12 16:20:39;;;;;;;;;;;;;;;1.05;82.89;101765.44;5009389;28;20339;-90
2022/01/12 16:23:04;;;;;;;;;;;;;;;0.93;82.71;101778.13;5004892;28;19922;-92
2022/01/12 16:25:38;;;;;;;;;;;;;;;0.96;82.87;101775.63;5004281;28;20456;-91
2022/01/12 16:28:04;;;;;;;;;;;;;;;0.98;82.74;101773.94;5002313;28;19967;-89
2022/01/12 16:30:51;;;;;;;;;;;;;;;0.84;82.55;101768.31;5004531;23;19933;-92
2022/01/12 16:33:16;;;;;;;;;;;;;;;0.97;82.96;101772.16;4990753;28;19932;-89
2022/01/12 16:35:45;;;;;;;;;;;;;;;0.92;82.65;101778.09;4990468;28;19921;-85
2022/01/12 16:38:11;;;;;;;;;;;;;;;0.93;82.95;101775.53;4992678;28;20385;-90
2022/01/12 16:40:36;;;;;;;;;;;;;;;0.89;82.84;101779.78;4992532;28;19968;-91
2022/01/12 16:43:02;;;;;;;;;;;;;;;0.96;82.66;101775.63;4991398;28;20420;-88
2022/01/12 16:46:04;;;;;;;;;;;;;;;0.80;82.60;101778.63;4991518;28;19925;-90
2022/01/12 16:48:26;;;;;;;;;;;;;;;0.77;82.61;101774.22;4989820;28;19926;-88
2022/01/12 16:50:54;;;;;;;;;;;;;;;0.92;82.48;101772.88;4990164;28;19922;-89
2022/01/12 16:53:21;;;;;;;;;;;;;;;0.86;82.44;101779.69;4990861;28;19965;-89
2022/01/12 16:55:46;;;;;;;;;;;;;;;0.85;82.42;101787.47;4990801;28;19925;-89
2022/01/12 16:58:11;;;;;;;;;;;;;;;0.84;82.31;101776.13;4991041;28;19922;-88
2022/01/12 17:00:39;;;;;;;;;;;;;;;0.74;82.38;101779.34;4991400;28;20320;-87
2022/01/12 17:03:05;;;;;;;;;;;;;;;0.81;82.41;101785.59;4999951;28;20335;-89
2022/01/12 17:05:30;;;;;;;;;;;;;;;0.79;82.38;101782.97;4991342;28;20028;-89
2022/01/12 17:07:55;;;;;;;;;;;;;;;0.87;82.23;101783.19;4998891;28;19924;-89
2022/01/12 17:10:21;;;;;;;;;;;;;;;0.78;81.87;101780.31;4992646;28;20024;-90
2022/01/12 17:12:47;;;;;;;;;;;;;;;0.71;81.74;101784.47;4991919;28;20063;-86
2022/01/12 17:15:28;;;;;;;;;;;;;;;0.77;81.78;101783.78;4990869;28;19918;-87
2022/01/12 17:18:13;;;;;;;;;;;;;;;0.71;81.49;101789.69;4991744;28;19917;-88
2022/01/12 17:20:40;;;;;;;;;;;;;;;0.80;81.65;101784.75;4990035;28;20365;-89
2022/01/12 17:23:14;;;;;;;;;;;;;;;0.82;81.42;101775.22;4990981;28;20376;-92
2022/01/12 17:25:41;;;;;;;;;;;;;;;0.75;81.27;101780.22;4989998;28;19926;-87
2022/01/12 17:28:17;;;;;;;;;;;;;;;0.75;81.28;101788.94;4992342;28;19922;-91
2022/01/12 17:30:44;;;;;;;;;;;;;;;0.81;81.38;101786.47;4991172;28;20040;-88
2022/01/12 17:33:09;;;;;;;;;;;;;;;0.74;81.45;101783.69;4991627;28;19929;-88
2022/01/12 17:35:37;;;;;;;;;;;;;;;0.73;81.37;101774.94;4991021;28;19921;-90
2022/01/12 17:38:08;;;;;;;;;;;;;;;0.71;81.49;101784.47;4990048;28;20828;-89
2022/01/12 17:40:39;;;;;;;;;;;;;;;0.74;81.23;101787.16;4991479;28;19930;-88
2022/01/12 17:43:04;;;;;;;;;;;;;;;0.71;81.21;101795.78;4992313;28;19922;-88
2022/01/12 17:45:30;;;;;;;;;;;;;;;0.65;81.05;101795.59;4991200;28;20292;-89
2022/01/12 17:47:55;;;;;;;;;;;;;;;0.68;80.92;101789.59;4989958;28;19929;-90
2022/01/12 17:50:24;;;;;;;;;;;;;;;0.67;80.96;101806.06;4989975;28;19969;-88
2022/01/12 17:52:49;;;;;;;;;;;;;;;0.68;80.94;101810.47;4991404;28;19922;-89
2022/01/12 17:55:16;;;;;;;;;;;;;;;0.67;80.99;101808.69;4990730;28;19926;-85
2022/01/12 17:57:42;;;;;;;;;;;;;;;1.05;82.57;101809.81;4989669;28;20063;-87
2022/01/12 18:00:10;;;;;;;;;;;;;;;0.81;82.21;101804.75;5003223;28;20004;-87
2022/01/12 18:02:35;;;;;;;;;;;;;;;0.65;82.31;101815.59;4996281;28;20285;-87
2022/01/12 18:05:00;;;;;;;;;;;;;;;0.64;82.18;101825.16;4992848;28;19918;-87
2022/01/12 18:07:25;;;;;;;;;;;;;;;0.69;81.67;101836.59;4993854;28;19922;-88
2022/01/12 18:09:51;;;;;;;;;;;;;;;0.66;81.59;101844.34;4995394;28;19918;-87
2022/01/12 18:12:16;;;;;;;;;;;;;;;0.61;81.83;101851.16;4995099;28;19922;-86
2022/01/12 18:14:44;;;;;;;;;;;;;;;0.60;81.92;101854.59;4993643;28;20451;-87
2022/01/12 18:17:09;;;;;;;;;;;;;;;0.56;81.84;101857.03;4994510;28;20380;-86
2022/01/12 18:19:43;;;;;;;;;;;;;;;0.53;81.69;101871.78;4993682;28;19921;-86
2022/01/12 18:22:09;;;;;;;;;;;;;;;0.54;81.63;101865.72;4993855;28;19921;-86
2022/01/12 18:24:35;;;;;;;;;;;;;;;0.59;81.59;101867.59;4994505;28;19927;-86
2022/01/12 18:27:03;;;;;;;;;;;;;;;0.51;81.07;101860.41;4994223;28;20009;-86
2022/01/12 18:29:29;;;;;;;;;;;;;;;0.59;80.94;101860.66;4994872;28;19925;-87
2022/01/12 18:31:55;;;;;;;;;;;;;;;0.61;80.62;101861.59;4993671;28;20332;-85
2022/01/12 18:34:20;;;;;;;;;;;;;;;0.58;80.59;101865.84;4995166;28;19921;-85
2022/01/12 18:36:45;;;;;;;;;;;;;;;0.48;80.65;101864.63;4992688;28;19926;-86
2022/01/12 18:39:14;;;;;;;;;;;;;;;0.54;81.42;101865.72;4992904;28;20056;-86
2022/01/12 18:41:40;;;;;;;;;;;;;;;1.01;85.74;101862.78;4992394;28;19929;-85
2022/01/12 18:44:06;;;;;;;;;;;;;;;1.20;89.37;101858.97;4994875;28;19926;-86
2022/01/12 18:46:31;;;;;;;;;;;;;;;1.24;91.93;101852.97;4993906;28;19924;-85
2022/01/12 18:48:57;;;;;;;;;;;;;;;1.36;93.62;101847.25;4993720;28;19922;-85
2022/01/12 18:51:22;;;;;;;;;;;;;;;1.41;94.79;101849.97;4993168;28;19921;-85
2022/01/12 18:53:47;;;;;;;;;;;;;;;1.44;96.03;101839.63;4994339;28;19925;-86
2022/01/12 18:56:13;;;;;;;;;;;;;;;1.58;96.93;101842.59;4993811;28;20361;-86
2022/01/12 18:58:38;;;;;;;;;;;;;;;1.65;98.00;101846.28;4992691;28;20816;-84
2022/01/12 19:01:03;;;;;;;;;;;;;;;1.75;99.67;101849.13;4993976;28;19921;-85
2022/01/12 19:03:28;;;;;;;;;;;;;;;1.89;100.00;101848.63;4992975;28;19925;-85
2022/01/12 19:05:54;;;;;;;;;;;;;;;2.02;100.00;101847.22;4991835;28;19922;-86
2022/01/12 19:08:19;;;;;;;;;;;;;;;2.13;100.00;101844.00;4992602;28;19925;-84
2022/01/12 19:10:44;;;;;;;;;;;;;;;2.29;100.00;101860.97;4992657;28;19922;-84
2022/01/12 19:13:12;;;;;;;;;;;;;;;2.46;100.00;101857.88;4993480;28;19949;-84
2022/01/12 19:15:37;;;;;;;;;;;;;;;2.58;100.00;101859.88;4993489;28;20439;-86
2022/01/12 19:18:02;;;;;;;;;;;;;;;2.69;100.00;101848.78;4992732;28;19933;-85
2022/01/12 19:20:27;;;;;;;;;;;;;;;2.75;100.00;101858.53;4992720;28;19937;-87
2022/01/12 19:22:53;;;;;;;;;;;;;;;2.85;100.00;101854.38;4993207;28;19922;-85
2022/01/12 19:25:18;;;;;;;;;;;;;;;2.94;100.00;101851.97;4992720;28;19948;-86
2022/01/12 19:27:43;;;;;;;;;;;;;;;3.01;100.00;101850.34;4994256;28;19929;-85
2022/01/12 19:30:10;;;;;;;;;;;;;;;3.08;100.00;101847.91;4992070;28;20020;-85
2022/01/12 19:32:36;;;;;;;;;;;;;;;3.18;100.00;101850.72;4992480;28;20377;-86
2022/01/12 19:35:01;;;;;;;;;;;;;;;3.23;100.00;101855.19;4991353;28;19926;-86
2022/01/12 19:37:26;;;;;;;;;;;;;;;3.32;100.00;101861.47;4992258;28;20317;-86
2022/01/12 19:39:52;;;;;;;;;;;;;;;3.37;100.00;101857.22;4992302;28;20396;-86
2022/01/12 19:42:18;;;;;;;;;;;;;;;3.44;100.00;101867.81;4992038;28;20012;-86
2022/01/12 19:44:43;;;;;;;;;;;;;;;3.52;100.00;101877.59;4994150;28;20266;-86
2022/01/12 19:47:18;;;;;;;;;;;;;;;3.56;100.00;101884.69;4994107;28;19989;-86
2022/01/12 19:49:49;;;;;;;;;;;;;;;3.61;100.00;101888.25;4991264;28;19982;-85
2022/01/12 19:52:33;;;;;;;;;;;;;;;3.69;100.00;101893.66;4991480;28;20336;-86
2022/01/12 19:55:06;;;;;;;;;;;;;;;3.73;100.00;101888.47;4991678;28;19922;-85
2022/01/12 19:58:00;;;;;;;;;;;;;;;3.77;100.00;101886.81;4992752;28;19972;-86
2022/01/12 20:00:27;;;;;;;;;;;;;;;3.84;100.00;101888.69;4979353;28;20300;-86
2022/01/12 20:02:54;;;;;;;;;;;;;;;3.89;100.00;101902.75;4991644;28;19917;-86
2022/01/12 20:05:19;;;;;;;;;;;;;;;3.97;100.00;101905.53;4990595;28;19926;-86
2022/01/12 20:07:44;;;;;;;;;;;;;;;3.22;100.00;101910.19;4990141;28;19921;-86
2022/01/12 20:10:11;;;;;;;;;;;;;;;2.70;100.00;101908.16;4993146;28;19944;-85
2022/01/12 20:12:38;;;;;;;;;;;;;;;2.62;100.00;101894.03;4991607;28;19922;-86
2022/01/12 20:15:03;;;;;;;;;;;;;;;2.45;100.00;101900.59;4993003;28;19949;-85
2022/01/12 20:22:44;;;;;;;;;;;;;;;2.16;99.97;101908.59;4991942;28;20407;-86
2022/01/12 20:25:10;;;;;;;;;;;;;;;2.14;98.13;101910.31;4991960;28;19926;-86
2022/01/12 20:27:35;;;;;;;;;;;;;;;2.08;96.61;101916.25;4992220;28;19929;-86
2022/01/12 20:30:01;;;;;;;;;;;;;;;2.02;95.28;101920.44;4991077;28;19976;-87
2022/01/12 20:32:29;;;;;;;;;;;;;;;1.94;93.95;101918.50;4990983;28;19929;-85
2022/01/12 20:34:54;;;;;;;;;;;;;;;1.93;93.07;101914.13;4990905;28;19917;-85
2022/01/12 20:37:20;;;;;;;;;;;;;;;1.83;91.88;101919.06;4992566;28;20444;-86
2022/01/12 20:39:45;;;;;;;;;;;;;;;1.78;91.05;101911.09;4992637;28;19975;-86
2022/01/12 20:42:11;;;;;;;;;;;;;;;1.75;90.13;101917.09;4991042;28;19965;-87
2022/01/12 20:44:37;;;;;;;;;;;;;;;1.70;89.18;101925.69;4989732;28;19984;-86
2022/01/12 20:47:03;;;;;;;;;;;;;;;1.69;88.37;101919.59;4991517;28;20328;-87
2022/01/12 20:49:28;;;;;;;;;;;;;;;1.60;87.81;101917.59;4991483;28;20349;-86
2022/01/12 20:51:53;;;;;;;;;;;;;;;1.58;87.40;101927.13;4990759;28;19930;-86